createdAt,value
2023-03-17T00:34:12.667Z,2.20
2023-03-17T00:34:17.651Z,2.30
2023-03-17T00:35:17.697Z,2.50
2023-03-17T02:02:28.727Z,2.20
2023-03-17T02:02:33.736Z,2.30
2023-03-17T02:03:33.802Z,2.10
2023-03-17T02:04:33.766Z,1.80
2023-03-17T02:05:33.704Z,2.00
2023-03-17T02:06:33.707Z,1.90
2023-03-17T02:07:33.747Z,2.30
2023-03-17T02:08:33.672Z,2.10
2023-03-17T02:09:33.674Z,2.10
2023-03-17T02:10:33.659Z,2.10
2023-03-17T02:11:33.672Z,2.40
2023-03-17T02:12:33.642Z,1.90
2023-03-17T02:13:33.637Z,2.30
2023-03-17T02:14:33.615Z,2.30
2023-03-17T02:15:33.584Z,2.30
2023-03-17T02:16:33.698Z,2.50
2023-03-17T02:17:33.630Z,2.20
2023-03-17T02:18:33.632Z,2.30
2023-03-17T02:19:33.556Z,2.20
2023-03-17T02:20:33.585Z,2.20
2023-03-17T02:21:33.593Z,2.10
2023-03-17T02:22:33.546Z,2.10
2023-03-17T02:23:33.541Z,2.30
2023-03-17T02:24:33.509Z,2.00
2023-03-17T02:25:33.506Z,2.30
2023-03-17T02:26:33.476Z,2.30
2023-03-17T02:27:33.441Z,2.20
2023-03-17T02:28:33.462Z,2.70
2023-03-17T02:29:33.457Z,2.30
2023-03-17T02:30:33.533Z,2.40
2023-03-17T02:31:33.445Z,2.40
2023-03-17T03:17:44.721Z,2.30
2023-03-17T03:17:49.790Z,2.40
2023-03-17T03:18:49.743Z,2.10
2023-03-17T03:19:50.845Z,2.30
2023-03-17T03:35:02.234Z,2.20
2023-03-17T03:35:08.405Z,2.40
2023-03-17T03:36:09.224Z,2.30
2023-03-17T03:37:08.322Z,2.40
2023-03-17T04:25:20.262Z,2.50
2023-03-17T04:25:26.520Z,2.50
2023-03-17T05:09:38.189Z,2.80
2023-03-17T05:49:56.116Z,2.70
2023-03-17T05:50:03.225Z,2.60
2023-03-17T05:51:14.619Z,2.20
2023-03-17T05:52:02.384Z,2.20
2023-03-17T05:53:02.382Z,2.40
2023-03-17T05:54:02.111Z,2.20
2023-03-17T07:36:13.407Z,2.00
2023-03-17T07:36:19.439Z,2.00
2023-03-17T07:37:19.470Z,2.50
2023-03-17T07:38:19.311Z,2.80
2023-03-17T07:39:19.533Z,2.40
2023-03-17T07:40:19.446Z,3.00
2023-03-17T07:41:19.456Z,2.30
2023-03-17T07:42:19.697Z,2.50
2023-03-17T07:43:19.630Z,2.20
2023-03-17T07:44:19.359Z,2.40
2023-03-17T07:45:20.085Z,2.10
2023-03-17T07:46:19.815Z,2.20
2023-03-17T07:47:19.326Z,2.10
2023-03-17T07:48:19.227Z,2.30
2023-03-17T07:49:27.767Z,2.10
2023-03-17T07:50:19.391Z,2.00
2023-03-17T07:51:19.591Z,2.50
2023-03-17T07:52:19.231Z,2.50
2023-03-17T07:53:19.662Z,2.10
2023-03-17T07:54:19.303Z,2.10
2023-03-17T07:55:19.206Z,2.10
2023-03-17T07:56:19.326Z,2.00
2023-03-17T07:57:19.417Z,2.20
2023-03-17T07:58:19.293Z,2.20
2023-03-17T10:13:30.958Z,2.20
2023-03-17T10:13:36.004Z,2.30
2023-03-17T10:14:37.084Z,1.90
2023-03-17T10:15:37.324Z,1.90
2023-03-17T10:16:37.649Z,2.20
2023-03-17T10:17:37.036Z,1.90
2023-03-17T10:18:37.183Z,2.10
2023-03-17T10:19:37.009Z,1.90
2023-03-17T10:20:36.967Z,1.90
2023-03-17T10:21:37.037Z,2.00
2023-03-17T10:22:37.499Z,1.90
2023-03-17T10:23:36.942Z,2.10
2023-03-17T10:24:36.865Z,1.90
2023-03-17T10:25:36.861Z,1.60
2023-03-17T10:26:36.762Z,1.70
2023-03-17T10:27:36.835Z,2.20
2023-03-17T10:28:36.708Z,1.70
2023-03-17T10:29:36.834Z,1.70
2023-03-17T10:30:36.727Z,1.90
2023-03-17T10:31:36.872Z,1.90
2023-03-17T10:32:36.756Z,1.70
2023-03-17T10:33:36.797Z,1.70
2023-03-17T10:34:38.104Z,2.00
2023-03-17T10:35:36.923Z,1.90
2023-03-17T10:36:36.730Z,1.80
2023-03-17T10:37:36.944Z,1.90
2023-03-17T10:38:36.804Z,1.90
2023-03-17T10:39:36.740Z,1.90
2023-03-17T10:40:36.612Z,1.90
2023-03-17T10:41:36.982Z,1.90
2023-03-17T10:42:36.665Z,1.90
2023-03-17T10:43:36.967Z,1.80
2023-03-17T10:44:37.087Z,2.00
2023-03-17T10:45:39.118Z,1.80
2023-03-17T10:46:36.704Z,1.80
2023-03-17T10:47:36.797Z,2.10
2023-03-17T10:48:36.688Z,2.00
2023-03-17T10:49:36.865Z,1.80
2023-03-17T10:50:36.646Z,1.70
2023-03-17T10:51:36.801Z,1.90
2023-03-17T10:52:36.555Z,1.80
2023-03-17T10:53:36.630Z,2.00
2023-03-17T10:54:36.538Z,2.00
2023-03-17T10:55:36.919Z,1.90
2023-03-17T10:56:36.637Z,2.10
2023-03-17T10:57:36.513Z,1.90
2023-03-17T10:58:36.542Z,1.90
2023-03-17T10:59:36.570Z,2.00
2023-03-17T11:00:36.638Z,1.70
2023-03-17T11:01:36.565Z,1.80
2023-03-17T11:02:36.537Z,1.90
2023-03-17T11:03:36.696Z,1.90
2023-03-17T11:36:47.506Z,1.80
2023-03-17T11:36:55.385Z,2.00
2023-03-17T11:37:53.583Z,1.70
2023-03-17T11:38:53.613Z,1.80
2023-03-17T11:39:53.804Z,1.70
2023-03-17T11:40:53.626Z,2.10
2023-03-17T11:41:53.502Z,1.90
2023-03-17T11:42:54.773Z,1.70
2023-03-17T11:43:53.611Z,2.10
2023-03-17T11:44:53.463Z,2.00
2023-03-17T15:37:46.940Z,1.80
2023-03-17T15:38:47.910Z,1.90
2023-03-17T15:39:47.934Z,1.90
2023-03-17T15:40:47.900Z,2.00
2023-03-17T15:41:47.892Z,2.00
2023-03-17T15:42:47.884Z,1.80
2023-03-17T15:43:47.901Z,1.90
2023-03-17T15:44:47.851Z,2.20
2023-03-17T15:45:47.908Z,1.80
2023-03-17T15:46:47.815Z,2.30
2023-03-17T15:47:47.825Z,2.00
2023-03-17T15:48:47.795Z,1.70
2023-03-17T15:49:47.869Z,2.00
2023-03-17T15:50:47.806Z,2.80
2023-03-17T15:51:47.827Z,2.30
2023-03-17T15:52:47.792Z,2.20
2023-03-17T15:53:47.780Z,1.80
2023-03-17T15:54:47.771Z,1.90
2023-03-17T15:55:47.754Z,2.00
2023-03-17T15:56:47.746Z,2.20
2023-03-17T15:57:54.774Z,1.70
2023-03-17T15:58:47.705Z,2.10
2023-03-17T15:59:47.739Z,1.90
2023-03-17T16:00:47.698Z,2.00
2023-03-17T16:01:47.703Z,1.90
2023-03-17T16:02:47.814Z,2.00
2023-03-17T16:03:47.696Z,1.70
2023-03-17T16:04:47.736Z,1.80
2023-03-17T16:05:47.730Z,2.00
2023-03-17T16:06:48.802Z,1.90
2023-03-17T16:07:47.732Z,1.90
2023-03-17T16:08:47.600Z,1.90
2023-03-17T16:09:47.600Z,1.80
2023-03-17T16:10:47.570Z,1.90
2023-03-17T16:11:47.583Z,1.90
2023-03-17T16:12:47.568Z,1.80
2023-03-17T16:13:47.643Z,1.80
2023-03-17T16:14:47.551Z,2.10
2023-03-17T16:15:47.592Z,1.80
2023-03-17T16:16:47.540Z,1.80
2023-03-17T16:17:47.559Z,2.10
2023-03-17T16:18:47.586Z,1.90
2023-03-17T16:19:47.507Z,1.60
2023-03-17T16:20:47.487Z,2.00
2023-03-17T16:21:47.517Z,1.60
2023-03-17T16:22:47.563Z,1.80
2023-03-17T16:23:47.458Z,1.50
2023-03-17T16:24:47.438Z,1.80
2023-03-17T16:25:47.451Z,1.70
2023-03-17T16:26:47.506Z,1.90
2023-03-17T16:27:47.400Z,1.70
2023-03-17T16:28:47.434Z,1.80
2023-03-17T16:29:47.428Z,1.50
2023-03-17T16:30:47.530Z,1.80
2023-03-17T16:31:47.386Z,1.70
2023-03-17T16:32:47.396Z,1.60
2023-03-17T16:33:47.387Z,1.80
2023-03-17T16:34:47.357Z,1.70
2023-03-17T16:35:47.420Z,2.00
2023-03-17T16:36:47.369Z,2.00
2023-03-17T16:37:47.312Z,2.10
2023-03-17T16:38:47.346Z,2.40
2023-03-17T16:39:47.293Z,2.50
2023-03-17T16:40:47.334Z,2.20
2023-03-17T16:41:47.298Z,2.10
2023-03-17T16:42:47.335Z,2.20
2023-03-17T16:43:47.284Z,2.20
2023-03-17T16:44:47.366Z,2.20
2023-03-17T16:45:47.226Z,1.80
2023-03-17T16:46:47.327Z,2.00
2023-03-17T16:47:47.207Z,1.80
2023-03-17T16:48:47.218Z,1.90
2023-03-17T16:49:47.226Z,1.90
2023-03-17T16:50:47.216Z,2.20
2023-03-17T16:51:49.380Z,2.00
2023-03-17T16:52:47.226Z,1.90
2023-03-17T16:53:47.155Z,1.80
2023-03-17T16:54:47.173Z,2.20
2023-03-17T16:55:47.204Z,1.80
2023-03-17T16:56:47.336Z,2.10
2023-03-17T16:57:47.122Z,1.80
2023-03-17T16:58:47.122Z,1.90
2023-03-17T16:59:47.150Z,1.70
2023-03-17T17:00:47.132Z,1.90
2023-03-17T17:01:47.167Z,1.70
2023-03-17T17:02:49.601Z,2.10
2023-03-17T17:03:47.087Z,1.80
2023-03-17T17:04:47.063Z,1.80
2023-03-17T17:05:47.036Z,1.80
2023-03-17T17:06:47.190Z,1.70
2023-03-17T17:07:47.014Z,1.90
2023-03-17T17:08:47.032Z,1.80
2023-03-17T17:09:47.017Z,1.90
2023-03-17T17:10:47.009Z,1.90
2023-03-17T17:12:09.479Z,1.90
2023-03-17T17:12:47.153Z,2.00
2023-03-17T17:13:47.078Z,2.00
2023-03-17T17:14:47.045Z,2.00
2023-03-17T17:15:47.048Z,2.20
2023-03-17T17:16:46.962Z,2.10
2023-03-17T17:17:46.962Z,2.20
2023-03-17T17:18:46.954Z,2.40
2023-03-17T17:19:46.923Z,2.90
2023-03-17T17:20:46.966Z,2.40
2023-03-17T17:21:46.947Z,2.10
2023-03-17T17:22:46.894Z,2.00
2023-03-17T17:23:46.896Z,2.00
2023-03-17T17:24:46.864Z,1.80
2023-03-17T17:25:46.890Z,2.10
2023-03-17T17:26:46.856Z,1.80
2023-03-17T17:27:46.828Z,1.70
2023-03-17T17:28:46.902Z,2.20
2023-03-17T17:29:46.814Z,2.00
2023-03-17T17:30:46.823Z,2.00
2023-03-17T17:31:46.841Z,2.20
2023-03-17T17:32:46.804Z,2.10
2023-03-17T17:33:46.817Z,2.10
2023-03-17T17:34:47.960Z,2.20
2023-03-17T17:35:46.955Z,2.50
2023-03-17T17:36:46.921Z,2.40
2023-03-17T17:37:46.915Z,2.30
2023-03-17T17:38:46.878Z,2.40
2023-03-17T17:39:46.869Z,2.80
2023-03-17T17:40:46.886Z,2.80
2023-03-17T17:41:46.928Z,2.30
2023-03-17T17:42:46.766Z,2.20
2023-03-17T17:43:46.767Z,2.70
2023-03-17T17:44:46.751Z,2.20
2023-03-17T17:45:46.774Z,2.10
2023-03-17T17:46:46.704Z,2.10
2023-03-17T17:47:46.717Z,2.00
2023-03-17T17:48:46.661Z,2.30
2023-03-17T17:49:46.602Z,1.90
2023-03-17T17:51:09.632Z,2.10
2023-03-17T17:51:46.653Z,1.80
2023-03-17T17:52:47.957Z,2.20
2023-03-17T17:53:46.595Z,1.90
2023-03-17T17:54:46.660Z,2.10
2023-03-17T17:55:46.680Z,2.60
2023-03-17T17:56:46.793Z,2.60
2023-03-17T17:57:46.598Z,2.30
2023-03-17T17:58:46.740Z,2.40
2023-03-17T17:59:46.539Z,2.20
2023-03-17T18:00:46.623Z,2.30
2023-03-17T18:01:46.593Z,2.00
2023-03-17T18:02:46.528Z,2.10
2023-03-17T18:03:46.642Z,2.00
2023-03-17T18:04:46.605Z,2.30
2023-03-17T18:05:46.580Z,2.10
2023-03-17T18:06:46.492Z,2.40
2023-03-17T18:07:46.572Z,2.10
2023-03-17T18:08:46.541Z,2.20
2023-03-17T18:09:46.490Z,2.20
2023-03-17T18:10:46.542Z,2.20
2023-03-17T18:11:46.496Z,2.00
2023-03-17T18:12:46.502Z,2.00
2023-03-17T18:13:46.528Z,2.20
2023-03-17T18:14:46.645Z,2.20
2023-03-17T18:15:46.439Z,1.90
2023-03-17T18:16:46.468Z,2.00
2023-03-17T18:17:46.468Z,2.20
2023-03-17T18:18:46.434Z,2.10
2023-03-17T18:19:46.417Z,2.10
2023-03-17T18:20:46.393Z,1.80
2023-03-17T18:21:46.361Z,2.20
2023-03-17T18:22:46.403Z,1.80
2023-03-17T18:23:46.365Z,1.80
2023-03-17T18:24:46.317Z,2.50
2023-03-17T18:25:46.341Z,2.10
2023-03-17T18:26:46.297Z,2.20
2023-03-17T18:27:46.367Z,2.00
2023-03-17T18:28:46.304Z,2.00
2023-03-17T18:29:46.368Z,1.90
2023-03-17T18:30:46.387Z,2.10
2023-03-17T18:31:46.552Z,1.90
2023-03-17T18:32:46.288Z,2.00
2023-03-17T18:33:46.268Z,1.70
2023-03-17T18:34:46.339Z,1.90
2023-03-17T18:35:46.424Z,1.80
2023-03-17T18:36:46.350Z,2.00
2023-03-17T18:37:46.418Z,1.70
2023-03-17T18:38:46.215Z,2.10
2023-03-17T18:39:55.519Z,1.90
2023-03-17T18:40:46.202Z,1.80
2023-03-17T18:41:46.182Z,2.20
2023-03-17T18:42:46.185Z,2.30
2023-03-17T18:43:46.160Z,2.20
2023-03-17T18:44:46.182Z,2.00
2023-03-17T18:45:46.233Z,2.30
2023-03-17T18:46:46.127Z,2.30
2023-03-17T18:47:46.109Z,2.40
2023-03-17T18:48:46.168Z,2.10
2023-03-17T18:49:47.222Z,1.90
2023-03-17T18:50:46.071Z,2.20
2023-03-17T18:51:46.093Z,2.20
2023-03-17T18:52:46.165Z,2.20
2023-03-17T18:53:46.080Z,1.80
2023-03-17T18:54:46.264Z,1.90
2023-03-17T18:55:46.056Z,1.90
2023-03-17T18:56:46.035Z,2.00
2023-03-17T18:57:45.986Z,2.10
2023-03-17T18:58:46.000Z,2.00
2023-03-17T18:59:46.094Z,2.00
2023-03-17T19:00:45.962Z,1.90
2023-03-17T19:01:45.894Z,2.00
2023-03-17T19:02:46.128Z,1.80
2023-03-17T19:03:45.969Z,2.30
2023-03-17T19:04:45.998Z,2.20
2023-03-17T19:05:45.927Z,2.00
2023-03-17T19:06:45.954Z,2.10
2023-03-17T19:07:45.846Z,2.40
2023-03-17T19:08:45.911Z,2.10
2023-03-17T19:09:45.889Z,2.20
2023-03-17T19:10:46.042Z,2.10
2023-03-17T19:11:45.874Z,2.10
2023-03-17T19:12:45.874Z,2.50
2023-03-17T19:13:45.895Z,2.40
2023-03-17T19:14:45.824Z,2.30
2023-03-17T19:15:45.786Z,2.60
2023-03-17T19:16:45.811Z,2.40
2023-03-17T19:17:45.727Z,2.30
2023-03-17T19:18:45.740Z,2.20
2023-03-17T19:19:45.720Z,1.90
2023-03-17T19:20:45.732Z,2.30
2023-03-17T19:21:45.691Z,2.40
2023-03-17T19:22:45.665Z,2.40
2023-03-17T19:23:45.717Z,2.40
2023-03-17T19:24:45.656Z,2.80
2023-03-17T19:25:45.666Z,2.30
2023-03-17T19:26:45.695Z,2.30
2023-03-17T19:27:45.646Z,2.60
2023-03-17T19:28:45.674Z,2.50
2023-03-17T19:29:45.595Z,2.50
2023-03-17T19:30:45.670Z,2.00
2023-03-17T19:31:48.378Z,2.00
2023-03-17T19:32:45.640Z,2.30
2023-03-17T19:33:45.675Z,2.10
2023-03-17T19:34:45.580Z,2.30
2023-03-17T19:35:45.546Z,2.30
2023-03-17T19:36:45.607Z,2.30
2023-03-17T19:37:45.579Z,2.40
2023-03-17T19:38:45.539Z,2.40
2023-03-17T19:39:45.494Z,2.50
2023-03-17T19:40:45.494Z,2.40
2023-03-17T19:41:45.506Z,2.90
2023-03-17T19:42:45.514Z,2.70
2023-03-17T19:43:45.489Z,2.50
2023-03-17T19:44:45.485Z,2.50
2023-03-17T19:45:45.503Z,2.60
2023-03-17T19:46:45.443Z,2.40
2023-03-17T19:47:45.485Z,2.40
2023-03-17T19:48:45.431Z,2.30
2023-03-17T19:49:45.391Z,2.40
2023-03-17T19:50:45.377Z,2.60
2023-03-17T19:51:45.390Z,2.30
2023-03-17T19:52:45.403Z,2.30
2023-03-17T19:53:45.415Z,2.50
2023-03-17T19:54:45.385Z,2.60
2023-03-17T19:55:45.345Z,2.40
2023-03-17T19:56:45.368Z,2.50
2023-03-17T19:57:45.331Z,2.40
2023-03-17T19:58:45.321Z,2.50
2023-03-17T19:59:45.378Z,2.70
2023-03-17T20:00:45.361Z,2.80
2023-03-17T20:01:45.354Z,2.70
2023-03-17T20:02:45.275Z,2.60
2023-03-17T20:03:45.330Z,2.50
2023-03-17T20:04:45.334Z,2.10
2023-03-17T20:05:45.270Z,2.20
2023-03-17T20:06:45.247Z,2.00
2023-03-17T20:07:45.222Z,2.10
2023-03-17T20:08:45.233Z,2.20
2023-03-17T20:09:45.214Z,2.30
2023-03-17T20:10:45.237Z,2.10
2023-03-17T20:11:45.186Z,2.20
2023-03-17T20:12:45.183Z,2.20
2023-03-17T20:13:45.323Z,2.20
2023-03-17T20:14:45.223Z,2.10
2023-03-17T20:15:45.186Z,2.30
2023-03-17T20:16:45.159Z,2.20
2023-03-17T20:17:45.114Z,2.20
2023-03-17T20:18:45.142Z,2.50
2023-03-17T20:19:45.117Z,2.20
2023-03-17T20:20:45.108Z,2.50
2023-03-17T20:21:45.103Z,2.40
2023-03-17T20:22:45.100Z,2.40
2023-03-17T20:23:45.075Z,2.30
2023-03-17T20:24:45.023Z,2.20
2023-03-17T20:25:45.053Z,2.20
2023-03-17T20:26:45.026Z,2.40
2023-03-17T20:27:45.005Z,2.20
2023-03-17T20:28:45.024Z,2.00
2023-03-17T20:29:44.981Z,2.70
2023-03-17T20:30:45.117Z,2.10
2023-03-17T20:31:44.981Z,2.20
2023-03-17T20:32:45.043Z,2.40
2023-03-17T20:33:45.017Z,2.10
2023-03-17T20:34:44.945Z,2.50
2023-03-17T20:35:44.969Z,2.30
2023-03-17T20:36:44.950Z,2.40
2023-03-17T20:37:44.952Z,2.20
2023-03-17T20:38:44.944Z,2.30
2023-03-17T20:39:44.892Z,2.40
2023-03-17T20:40:44.874Z,2.30
2023-03-17T20:41:44.871Z,2.00
2023-03-17T20:42:44.841Z,2.50
2023-03-17T20:43:44.886Z,2.00
2023-03-17T20:44:44.808Z,2.40
2023-03-17T20:45:44.918Z,2.40
2023-03-17T20:46:44.885Z,2.30
2023-03-17T20:47:44.807Z,2.20
2023-03-17T20:48:44.833Z,2.50
2023-03-17T20:49:44.851Z,2.10
2023-03-17T20:50:44.779Z,2.10
2023-03-17T20:51:44.799Z,2.20
2023-03-17T20:52:44.899Z,2.40
2023-03-17T20:53:44.773Z,2.30
2023-03-17T20:54:44.727Z,2.30
2023-03-17T20:55:44.728Z,2.40
2023-03-17T20:56:44.731Z,2.30
2023-03-17T20:57:44.704Z,2.40
2023-03-17T20:58:44.702Z,2.20
2023-03-17T20:59:44.680Z,2.20
2023-03-17T21:00:44.666Z,2.40
2023-03-17T21:01:44.687Z,2.60
2023-03-17T21:02:44.670Z,2.30
2023-03-17T21:03:45.653Z,2.40
2023-03-17T21:04:44.648Z,2.80
2023-03-17T21:05:44.653Z,3.20
2023-03-17T21:06:44.591Z,3.80
2023-03-17T21:07:44.604Z,4.60
2023-03-17T21:08:44.584Z,3.50
2023-03-17T21:09:44.577Z,3.80
2023-03-17T21:10:44.592Z,2.60
2023-03-17T21:11:44.632Z,3.10
2023-03-17T21:12:44.585Z,3.20
2023-03-17T21:13:44.526Z,3.00
2023-03-17T21:14:44.599Z,3.30
2023-03-17T21:15:44.555Z,2.90
2023-03-17T21:16:44.492Z,2.40
2023-03-17T21:17:44.513Z,2.70
2023-03-17T21:18:44.553Z,2.50
2023-03-17T21:19:44.492Z,2.50
2023-03-17T21:20:44.496Z,2.40
2023-03-17T21:21:44.502Z,2.10
2023-03-17T21:22:44.492Z,2.10
2023-03-17T21:23:44.421Z,2.30
2023-03-17T21:24:44.457Z,2.20
2023-03-17T21:25:44.514Z,2.20
2023-03-17T21:26:44.394Z,2.50
2023-03-17T21:27:44.408Z,2.30
2023-03-17T21:28:44.395Z,2.60
2023-03-17T21:29:44.417Z,2.30
2023-03-17T21:30:44.346Z,2.20
2023-03-17T21:31:44.477Z,2.40
2023-03-17T21:32:44.364Z,2.40
2023-03-17T21:33:44.379Z,2.20
2023-03-17T21:34:44.326Z,2.20
2023-03-17T21:35:44.403Z,2.40
2023-03-17T21:36:44.303Z,2.00
2023-03-17T21:37:44.345Z,2.10
2023-03-17T21:38:44.334Z,1.90
2023-03-17T21:39:44.263Z,2.20
2023-03-17T21:40:44.246Z,2.40
2023-03-17T21:41:44.230Z,2.40
2023-03-17T21:42:44.246Z,2.20
2023-03-17T21:43:44.207Z,2.20
2023-03-17T21:44:44.266Z,2.50
2023-03-17T21:45:44.284Z,2.30
2023-03-17T21:46:44.185Z,2.30
2023-03-17T21:47:44.191Z,2.20
2023-03-17T21:48:44.197Z,2.10
2023-03-17T21:49:44.194Z,2.20
2023-03-17T21:50:44.149Z,2.40
2023-03-17T21:51:44.142Z,2.80
2023-03-17T21:52:44.124Z,2.60
2023-03-17T21:53:44.111Z,2.30
2023-03-17T21:54:44.092Z,2.30
2023-03-17T21:55:44.178Z,2.50
2023-03-17T21:56:44.069Z,2.40
2023-03-17T21:57:44.088Z,2.10
2023-03-17T21:58:44.053Z,2.30
2023-03-17T21:59:44.058Z,2.30
2023-03-17T22:00:45.789Z,2.40
2023-03-17T22:01:44.157Z,2.30
2023-03-17T22:02:44.049Z,2.10
2023-03-17T22:03:44.007Z,2.30
2023-03-17T22:04:44.021Z,2.40
2023-03-17T22:05:44.062Z,2.10
2023-03-17T22:06:44.027Z,2.30
2023-03-17T22:07:44.040Z,2.40
2023-03-17T22:08:44.082Z,2.60
2023-03-17T22:09:43.968Z,2.60
2023-03-17T22:10:43.925Z,2.50
2023-03-17T22:11:44.000Z,2.40
2023-03-17T22:12:43.902Z,2.30
2023-03-17T22:13:43.923Z,2.70
2023-03-17T22:14:44.020Z,2.30
2023-03-17T22:15:43.906Z,2.60
2023-03-17T22:16:44.147Z,2.80
2023-03-17T22:17:43.852Z,2.50
2023-03-17T22:18:43.859Z,2.20
2023-03-17T22:19:43.894Z,2.60
2023-03-17T22:20:43.905Z,2.70
2023-03-17T22:21:43.831Z,2.90
2023-03-17T22:22:43.811Z,2.80
2023-03-17T22:23:43.813Z,2.60
2023-03-17T22:24:43.796Z,2.70
2023-03-17T22:25:43.829Z,3.00
2023-03-17T22:26:43.759Z,3.00
2023-03-17T22:27:43.748Z,3.00
2023-03-17T22:28:43.829Z,2.80
2023-03-17T22:29:43.731Z,2.80
2023-03-17T22:30:43.752Z,3.30
2023-03-17T22:31:43.872Z,2.80
2023-03-17T22:32:43.715Z,2.80
2023-03-17T22:33:43.709Z,2.70
2023-03-17T22:34:43.785Z,2.80
2023-03-17T22:35:43.730Z,2.50
2023-03-17T22:36:43.732Z,2.50
2023-03-17T22:37:43.794Z,2.40
2023-03-17T22:38:43.734Z,2.40
2023-03-17T22:39:43.701Z,2.80
2023-03-17T22:40:43.661Z,2.70
2023-03-17T22:41:43.619Z,2.70
2023-03-17T22:42:43.608Z,3.00
2023-03-17T22:43:43.632Z,2.20
2023-03-17T22:44:43.587Z,2.80
2023-03-17T22:45:43.639Z,2.70
2023-03-17T22:46:43.568Z,2.50
2023-03-17T22:47:43.590Z,2.40
2023-03-17T22:48:43.594Z,2.50
2023-03-17T22:49:43.540Z,2.70
2023-03-17T22:50:43.506Z,2.60
2023-03-17T22:51:43.524Z,2.70
2023-03-17T22:52:43.483Z,2.80
2023-03-17T22:53:43.489Z,2.70
2023-03-17T22:54:43.505Z,2.70
2023-03-17T22:55:43.474Z,3.00
2023-03-17T22:56:43.451Z,2.70
2023-03-17T22:57:43.479Z,2.70
2023-03-17T22:58:43.433Z,3.00
2023-03-17T22:59:43.417Z,2.50
2023-03-17T23:00:43.424Z,2.90
2023-03-17T23:01:43.436Z,2.80
2023-03-17T23:02:43.470Z,3.10
2023-03-17T23:03:43.445Z,2.70
2023-03-17T23:04:43.385Z,3.00
2023-03-17T23:05:43.428Z,3.20
2023-03-17T23:06:43.391Z,2.80
2023-03-17T23:07:51.493Z,2.70
2023-03-17T23:08:43.359Z,2.80
2023-03-17T23:09:43.328Z,2.60
2023-03-17T23:10:43.306Z,2.80
2023-03-17T23:11:43.303Z,2.80
2023-03-17T23:12:43.302Z,2.70
2023-03-17T23:13:43.306Z,2.70
2023-03-17T23:14:43.362Z,2.80
2023-03-17T23:15:43.281Z,2.70
2023-03-17T23:16:43.348Z,2.80
2023-03-17T23:17:43.271Z,2.90
2023-03-17T23:18:46.125Z,2.60
2023-03-17T23:19:43.313Z,2.90
2023-03-17T23:20:43.247Z,2.70
2023-03-17T23:21:43.218Z,2.80
2023-03-17T23:22:43.219Z,2.70
2023-03-17T23:23:43.230Z,3.00
2023-03-17T23:24:43.185Z,2.90
2023-03-17T23:25:43.223Z,2.60
2023-03-17T23:26:43.274Z,2.90
2023-03-17T23:27:43.146Z,3.00
2023-03-17T23:28:43.124Z,2.80
2023-03-17T23:29:43.120Z,2.80
2023-03-17T23:30:43.312Z,2.80
2023-03-17T23:31:43.091Z,2.50
2023-03-17T23:32:43.143Z,2.70
2023-03-17T23:33:43.094Z,2.80
2023-03-17T23:34:43.065Z,3.10
2023-03-17T23:35:43.073Z,3.10
2023-03-17T23:36:43.055Z,2.80
2023-03-17T23:37:43.024Z,3.00
2023-03-17T23:38:43.009Z,2.70
2023-03-17T23:39:43.028Z,3.20
2023-03-17T23:40:42.991Z,3.20
2023-03-17T23:41:43.613Z,2.60
2023-03-17T23:42:42.991Z,3.20
2023-03-17T23:43:42.980Z,2.90
2023-03-17T23:44:43.006Z,2.80
2023-03-17T23:45:42.947Z,2.90
2023-03-17T23:46:42.972Z,3.20
2023-03-17T23:47:42.968Z,2.90
2023-03-17T23:48:43.136Z,2.90
2023-03-17T23:49:42.893Z,2.70
2023-03-17T23:50:42.875Z,2.60
2023-03-17T23:51:42.879Z,2.80
2023-03-17T23:52:42.866Z,2.60
2023-03-17T23:53:42.933Z,2.60
2023-03-17T23:54:42.839Z,2.60
2023-03-17T23:55:42.847Z,2.90
2023-03-17T23:56:43.132Z,3.30
2023-03-17T23:57:42.827Z,2.60
2023-03-17T23:58:42.961Z,2.90
2023-03-17T23:59:42.828Z,3.00
